Nortonville, Kansas
Current Conditions -  °F | °C
As of 1:52 AM on Wednesday 26 Nov 2014 (Local Time) from KLWC Reporting Station
Overcast Overcast  
Wind Chill: 32°   Ceiling: 7500
Heat Index: 40°   Visibility: 10mi
Dew Point: 23°   Wind: 14mph
Humidity: 51%   Direction: 200°SSW
Pressure: 29.93"   Gusts: NA
Location:  39.42°N, 95.33°W
Report Text: KLWC 260752Z AUTO 20012KT 10SM SCT060 OVC075 04/M05 A2993 RMK AO2 SLP138 T00441050
Loading
Personal Weather Stations






























Interactive Weather Map New forecast layout! Learn more

10-Day Weather Forecast

Advertisements
Track Severe Weather on mobile